Time;durP1;ratioP1;P1;durP2;ratioP2;P2;SDS_P1;SDS_P2;PMS_P1;PMS_P2;Temp;Humidity;BMP_temperature;BMP_pressure;BME280_temperature;BME280_humidity;BME280_pressure;Samples;Min_cycle;Max_cycle;Signal;HPM_P1;HPM_P2
2023/07/29 00:01:49;;;;;;;5.18;2.28;;;17.40;99.90;;;;;;4913315;29;37575;-80
2023/07/29 00:04:16;;;;;;;3.92;2.25;;;17.30;99.90;;;;;;4918850;29;38701;-80
2023/07/29 00:06:42;;;;;;;4.43;2.00;;;17.30;99.90;;;;;;4903162;29;37827;-81
2023/07/29 00:09:08;;;;;;;3.33;2.10;;;17.30;99.90;;;;;;4926335;29;38274;-80
2023/07/29 00:11:34;;;;;;;6.50;3.08;;;17.30;99.90;;;;;;4917987;29;37984;-82
2023/07/29 00:14:01;;;;;;;5.47;2.88;;;17.20;99.90;;;;;;4908847;29;37617;-81
2023/07/29 00:16:27;;;;;;;4.95;2.58;;;17.20;99.90;;;;;;4910520;29;46864;-81
2023/07/29 00:18:54;;;;;;;4.43;2.50;;;17.20;99.90;;;;;;4899348;29;37292;-81
2023/07/29 00:21:20;;;;;;;8.15;3.13;;;17.20;99.90;;;;;;4930347;29;37394;-81
2023/07/29 00:23:46;;;;;;;7.85;2.83;;;17.20;99.90;;;;;;4907164;29;37747;-81
2023/07/29 00:26:12;;;;;;;8.02;3.25;;;17.20;99.90;;;;;;4910772;29;37717;-82
2023/07/29 00:28:39;;;;;;;9.18;3.95;;;17.20;99.90;;;;;;4898787;29;37502;-82
2023/07/29 00:31:05;;;;;;;6.97;3.42;;;17.20;99.90;;;;;;4913343;29;36731;-81
2023/07/29 00:33:31;;;;;;;6.75;3.75;;;17.20;99.90;;;;;;4909431;29;37998;-81
2023/07/29 00:36:01;;;;;;;9.27;4.07;;;17.20;99.90;;;;;;4911280;29;37601;-81
2023/07/29 00:38:28;;;;;;;10.05;4.15;;;17.20;99.90;;;;;;4927622;29;48461;-81
2023/07/29 00:40:54;;;;;;;8.13;3.85;;;17.20;99.90;;;;;;4922297;29;37973;-80
2023/07/29 00:43:20;;;;;;;9.18;3.25;;;17.20;99.90;;;;;;4914903;29;37619;-80
2023/07/29 00:45:47;;;;;;;5.32;3.05;;;17.20;99.90;;;;;;4910412;29;39156;-81
2023/07/29 00:48:14;;;;;;;5.00;2.80;;;17.20;99.90;;;;;;4910803;29;37285;-81
2023/07/29 00:50:40;;;;;;;4.95;2.65;;;17.20;99.90;;;;;;4904889;29;36297;-81
2023/07/29 00:53:07;;;;;;;5.80;2.42;;;17.20;99.90;;;;;;4915954;29;37911;-81
2023/07/29 00:55:33;;;;;;;3.08;2.30;;;17.20;99.90;;;;;;4897288;29;37579;-80
2023/07/29 00:58:00;;;;;;;4.72;2.15;;;17.20;99.90;;;;;;4914125;29;38546;-80
2023/07/29 01:03:10;;;;;;;2.97;2.05;;;17.30;99.90;;;;;;5166938;23;21002;-87
2023/07/29 01:05:55;;;;;;;5.18;2.03;;;17.30;99.90;;;;;;4935864;28;37970;-86
2023/07/29 01:09:05;;;;;;;5.38;2.17;;;17.30;99.90;;;;;;4933288;28;37599;-86
2023/07/29 01:11:45;;;;;;;3.25;2.45;;;17.30;99.90;;;;;;4918556;29;47769;-86
2023/07/29 01:14:18;;;;;;;3.95;2.28;;;17.30;99.90;;;;;;4906594;29;37750;-86
2023/07/29 01:16:51;;;;;;;3.38;2.17;;;17.20;99.90;;;;;;4913993;28;38817;-86
2023/07/29 01:19:52;;;;;;;3.03;2.33;;;17.20;99.90;;;;;;4945767;28;38975;-87
2023/07/29 01:22:20;;;;;;;4.60;2.30;;;17.20;99.90;;;;;;4937395;28;36057;-83
2023/07/29 01:24:46;;;;;;;3.30;2.22;;;17.20;99.90;;;;;;4942583;28;39422;-86
2023/07/29 01:27:12;;;;;;;2.88;2.33;;;17.20;99.90;;;;;;4944169;28;37496;-85
2023/07/29 01:29:38;;;;;;;5.40;2.15;;;17.20;99.90;;;;;;4946849;28;38120;-86
2023/07/29 01:32:32;;;;;;;2.90;2.25;;;17.10;99.90;;;;;;4932255;28;37422;-86
2023/07/29 01:35:23;;;;;;;2.50;2.22;;;17.10;99.90;;;;;;4926853;28;37284;-85
2023/07/29 01:37:53;;;;;;;4.47;2.55;;;17.10;99.90;;;;;;4951489;28;48829;-86
2023/07/29 01:40:22;;;;;;;6.32;2.30;;;17.10;99.90;;;;;;4932903;28;38410;-86
2023/07/29 01:42:48;;;;;;;3.50;2.15;;;17.00;99.90;;;;;;4935474;28;36014;-85
2023/07/29 01:45:15;;;;;;;3.85;2.60;;;17.00;99.90;;;;;;4931594;28;38299;-87
2023/07/29 01:47:41;;;;;;;5.63;2.47;;;17.00;99.90;;;;;;4950256;28;39535;-86
2023/07/29 01:50:08;;;;;;;4.00;2.80;;;17.00;99.90;;;;;;4936318;28;37340;-86
2023/07/29 01:52:35;;;;;;;6.80;2.40;;;16.90;99.90;;;;;;4952701;28;37481;-86
2023/07/29 01:55:02;;;;;;;6.75;2.75;;;16.90;99.90;;;;;;4947542;28;38918;-86
2023/07/29 01:57:28;;;;;;;5.95;2.38;;;16.90;99.90;;;;;;4942792;28;38338;-86
2023/07/29 01:59:54;;;;;;;5.22;2.35;;;17.00;99.90;;;;;;4942449;28;37820;-86
2023/07/29 02:02:20;;;;;;;4.72;2.40;;;17.00;99.90;;;;;;4949614;28;36346;-86
2023/07/29 02:04:51;;;;;;;4.93;2.28;;;17.00;99.90;;;;;;4940216;28;37463;-86
2023/07/29 02:07:19;;;;;;;4.43;2.47;;;16.90;99.90;;;;;;4939799;28;37881;-85
2023/07/29 02:09:45;;;;;;;5.72;2.40;;;16.90;99.90;;;;;;4955181;28;38438;-86
2023/07/29 02:12:11;;;;;;;4.88;2.30;;;16.90;99.90;;;;;;4944873;28;35876;-86
2023/07/29 02:14:37;;;;;;;2.45;2.03;;;16.90;99.90;;;;;;4954352;28;38656;-86
2023/07/29 02:17:03;;;;;;;5.70;2.83;;;16.90;99.90;;;;;;4949055;28;38934;-85
2023/07/29 02:19:29;;;;;;;4.63;2.60;;;16.90;99.90;;;;;;4928969;28;37483;-86
2023/07/29 02:21:55;;;;;;;3.75;2.25;;;16.90;99.90;;;;;;4933706;28;38493;-86
2023/07/29 02:24:22;;;;;;;5.82;2.67;;;16.90;99.90;;;;;;4957592;28;38864;-84
2023/07/29 02:26:48;;;;;;;3.50;2.08;;;17.00;99.90;;;;;;4949738;28;37583;-84
2023/07/29 02:29:14;;;;;;;6.95;2.70;;;16.90;99.90;;;;;;4936113;28;38673;-86
2023/07/29 02:31:40;;;;;;;4.07;2.17;;;16.90;99.90;;;;;;4937644;28;36504;-84
2023/07/29 02:34:06;;;;;;;3.53;2.28;;;17.00;99.90;;;;;;4941271;28;37805;-85
2023/07/29 02:36:32;;;;;;;4.72;2.65;;;17.00;99.90;;;;;;4941077;28;37478;-86
2023/07/29 02:38:58;;;;;;;2.63;2.25;;;16.90;99.90;;;;;;4940348;28;37085;-85
2023/07/29 02:41:24;;;;;;;6.70;2.78;;;16.90;99.90;;;;;;4953757;28;37063;-85
2023/07/29 02:43:51;;;;;;;4.95;2.58;;;16.90;99.90;;;;;;4939568;28;37475;-85
2023/07/29 02:46:17;;;;;;;3.80;2.50;;;16.90;99.90;;;;;;4935536;28;37700;-86
2023/07/29 02:48:44;;;;;;;3.58;2.60;;;16.90;99.90;;;;;;4951571;28;38858;-87
2023/07/29 02:51:10;;;;;;;4.25;2.80;;;16.90;99.90;;;;;;4948031;28;36849;-86
2023/07/29 02:53:36;;;;;;;4.07;2.50;;;16.90;99.90;;;;;;4954491;28;38971;-86
2023/07/29 02:56:03;;;;;;;3.22;2.78;;;16.90;99.90;;;;;;4945276;28;38134;-86
2023/07/29 02:58:30;;;;;;;3.30;2.50;;;16.90;99.90;;;;;;4954513;28;39308;-85
2023/07/29 03:01:04;;;;;;;4.78;3.10;;;16.90;99.90;;;;;;4950490;28;37245;-87
2023/07/29 03:03:30;;;;;;;3.38;2.60;;;16.90;99.90;;;;;;4948940;28;49118;-86
2023/07/29 03:06:02;;;;;;;5.22;3.00;;;16.90;99.90;;;;;;4928176;28;37359;-86
2023/07/29 03:08:28;;;;;;;5.45;3.05;;;16.90;99.90;;;;;;4931630;28;47034;-86
2023/07/29 03:10:55;;;;;;;4.57;2.85;;;16.90;99.90;;;;;;4932791;28;36132;-85
2023/07/29 03:13:21;;;;;;;6.50;3.22;;;16.90;99.90;;;;;;4949516;28;37947;-83
2023/07/29 03:15:48;;;;;;;5.35;3.03;;;17.00;99.90;;;;;;4940259;28;37627;-86
2023/07/29 03:18:15;;;;;;;5.80;3.20;;;17.00;99.90;;;;;;4934493;28;38699;-86
2023/07/29 03:20:41;;;;;;;7.07;3.33;;;17.00;99.90;;;;;;4950194;28;37297;-86
2023/07/29 03:23:07;;;;;;;5.78;2.85;;;17.00;99.90;;;;;;4936396;28;39646;-86
2023/07/29 03:25:34;;;;;;;4.55;2.95;;;17.00;99.90;;;;;;4939771;28;37857;-84
2023/07/29 03:28:00;;;;;;;6.88;3.70;;;17.00;99.90;;;;;;4950620;28;39308;-85
2023/07/29 03:30:26;;;;;;;6.55;3.13;;;17.00;99.90;;;;;;4931684;28;36158;-85
2023/07/29 03:32:52;;;;;;;7.85;4.20;;;17.00;99.90;;;;;;4957843;28;39376;-87
2023/07/29 03:35:19;;;;;;;5.93;3.40;;;16.90;99.90;;;;;;4932443;28;37821;-85
2023/07/29 03:37:45;;;;;;;5.97;3.33;;;17.00;99.90;;;;;;4945619;28;38331;-87
2023/07/29 03:40:11;;;;;;;5.75;4.03;;;16.90;99.90;;;;;;4953107;28;38006;-87
2023/07/29 03:42:37;;;;;;;7.43;3.30;;;17.00;99.90;;;;;;4948312;28;37721;-86
2023/07/29 03:45:04;;;;;;;6.70;3.60;;;17.00;99.90;;;;;;4953139;28;39599;-85
2023/07/29 03:47:30;;;;;;;7.43;4.05;;;17.00;99.90;;;;;;4937020;28;48100;-88
2023/07/29 03:49:56;;;;;;;7.22;3.63;;;17.00;99.90;;;;;;4937446;28;36173;-87
2023/07/29 03:52:23;;;;;;;8.27;4.28;;;17.00;99.90;;;;;;4960119;28;38848;-87
2023/07/29 03:54:49;;;;;;;7.20;3.80;;;17.10;99.90;;;;;;4949321;28;37750;-87
2023/07/29 03:57:15;;;;;;;8.77;4.28;;;17.00;99.90;;;;;;4944975;28;37253;-87
2023/07/29 03:59:41;;;;;;;7.32;3.72;;;17.00;99.90;;;;;;4927663;28;36273;-86
2023/07/29 04:02:07;;;;;;;10.55;4.57;;;17.00;99.90;;;;;;4942768;28;37925;-86
2023/07/29 04:04:33;;;;;;;8.90;4.40;;;17.00;99.90;;;;;;4952771;28;38671;-86
2023/07/29 04:07:00;;;;;;;10.05;4.68;;;17.00;99.90;;;;;;4939514;28;37528;-85
2023/07/29 04:09:26;;;;;;;8.65;4.45;;;16.90;99.90;;;;;;4953990;28;36908;-86
2023/07/29 04:11:52;;;;;;;5.72;4.63;;;16.90;99.90;;;;;;4943657;28;37985;-86
2023/07/29 04:14:18;;;;;;;6.63;4.60;;;17.00;99.90;;;;;;4944125;28;37807;-85
2023/07/29 04:16:45;;;;;;;8.38;5.10;;;17.00;99.90;;;;;;4948491;28;36929;-86
2023/07/29 04:19:12;;;;;;;6.63;4.78;;;17.00;99.90;;;;;;4949290;28;36520;-86
2023/07/29 04:21:38;;;;;;;8.00;4.93;;;17.10;99.90;;;;;;4950959;28;39014;-86
2023/07/29 04:24:04;;;;;;;8.95;5.35;;;17.00;99.90;;;;;;4952549;28;38465;-86
2023/07/29 04:26:30;;;;;;;8.23;4.80;;;17.00;99.90;;;;;;4934516;28;39004;-86
2023/07/29 04:28:58;;;;;;;9.07;5.55;;;17.00;99.90;;;;;;4934191;28;36081;-87
2023/07/29 04:31:24;;;;;;;7.88;4.93;;;17.10;99.90;;;;;;4935208;28;37804;-87
2023/07/29 04:33:50;;;;;;;8.70;5.40;;;17.10;99.90;;;;;;4946116;28;38842;-88
2023/07/29 04:36:16;;;;;;;8.90;4.60;;;17.10;99.90;;;;;;4918208;28;38653;-87
2023/07/29 04:38:42;;;;;;;11.95;5.78;;;17.10;99.90;;;;;;4920503;28;36401;-87
2023/07/29 04:41:10;;;;;;;9.27;5.68;;;17.10;99.90;;;;;;4935237;28;40809;-87
2023/07/29 04:43:37;;;;;;;8.98;5.22;;;17.10;99.90;;;;;;4931257;28;38319;-86
2023/07/29 04:46:07;;;;;;;13.98;6.40;;;17.20;99.90;;;;;;4942791;28;38674;-87
2023/07/29 04:48:33;;;;;;;7.88;5.07;;;17.20;99.90;;;;;;4936224;28;36591;-88
2023/07/29 04:50:59;;;;;;;12.10;5.82;;;17.10;99.90;;;;;;4941284;28;38202;-87
2023/07/29 04:53:26;;;;;;;12.00;5.80;;;17.10;99.90;;;;;;4953432;28;40299;-87
2023/07/29 04:55:52;;;;;;;9.18;5.50;;;17.20;99.90;;;;;;4940632;28;37535;-87
2023/07/29 04:58:18;;;;;;;12.95;5.88;;;17.20;99.90;;;;;;4951427;28;37882;-86
2023/07/29 05:00:46;;;;;;;11.35;5.72;;;17.20;99.90;;;;;;4925877;28;37622;-87
2023/07/29 05:03:12;;;;;;;9.38;6.10;;;17.20;99.90;;;;;;4939932;28;37896;-86
2023/07/29 05:05:38;;;;;;;11.38;5.57;;;17.20;99.90;;;;;;4950409;28;39040;-87
2023/07/29 05:08:04;;;;;;;8.43;5.40;;;17.20;99.90;;;;;;4957606;28;37158;-87
2023/07/29 05:10:30;;;;;;;8.10;4.90;;;17.20;99.90;;;;;;4946740;28;38384;-87
2023/07/29 05:12:56;;;;;;;8.60;5.07;;;17.30;99.90;;;;;;4944348;28;38409;-87
2023/07/29 05:15:22;;;;;;;10.20;5.30;;;17.30;99.90;;;;;;4935665;28;38823;-87
2023/07/29 05:17:48;;;;;;;6.90;4.57;;;17.30;99.90;;;;;;4932481;28;36209;-86
2023/07/29 05:20:14;;;;;;;8.65;5.20;;;17.30;99.90;;;;;;4951589;28;38604;-85
2023/07/29 05:22:40;;;;;;;8.45;5.65;;;17.30;99.90;;;;;;4930996;28;38095;-87
2023/07/29 05:25:07;;;;;;;8.00;5.47;;;17.40;99.90;;;;;;4942658;28;38447;-86
2023/07/29 05:27:33;;;;;;;9.43;4.90;;;17.40;99.90;;;;;;4938836;28;36473;-86
2023/07/29 05:29:59;;;;;;;7.57;5.07;;;17.50;99.90;;;;;;4937318;28;37689;-86
2023/07/29 05:32:25;;;;;;;9.18;4.28;;;17.60;99.90;;;;;;4939370;28;38784;-86
2023/07/29 05:34:51;;;;;;;7.30;4.72;;;17.60;99.90;;;;;;4938664;28;37432;-86
2023/07/29 05:37:17;;;;;;;10.45;5.45;;;17.60;99.90;;;;;;4933893;28;36317;-85
2023/07/29 05:39:43;;;;;;;11.45;4.82;;;17.60;99.90;;;;;;4948610;28;38634;-87
2023/07/29 05:42:10;;;;;;;9.07;4.75;;;17.60;99.90;;;;;;4930138;28;38496;-85
2023/07/29 05:44:36;;;;;;;7.60;4.13;;;17.70;99.90;;;;;;4939648;28;37424;-86
2023/07/29 05:47:02;;;;;;;12.18;4.78;;;17.70;99.90;;;;;;4932014;28;35969;-86
2023/07/29 05:49:28;;;;;;;8.85;4.60;;;17.70;99.90;;;;;;4950212;28;48245;-85
2023/07/29 05:51:55;;;;;;;9.73;4.30;;;17.80;99.90;;;;;;4949164;28;39362;-86
2023/07/29 05:54:21;;;;;;;8.77;4.38;;;17.80;99.90;;;;;;4930166;28;39839;-85
2023/07/29 05:56:47;;;;;;;7.85;4.13;;;17.80;99.90;;;;;;4931420;28;35922;-85
2023/07/29 05:59:13;;;;;;;7.90;4.60;;;17.90;99.90;;;;;;4926592;28;38137;-86
2023/07/29 06:01:39;;;;;;;7.28;4.03;;;17.90;99.90;;;;;;4945098;28;38922;-86
2023/07/29 06:04:05;;;;;;;9.18;5.00;;;18.00;99.90;;;;;;4946310;28;38918;-87
2023/07/29 06:06:32;;;;;;;7.55;3.90;;;18.00;99.90;;;;;;4939590;28;36220;-85
2023/07/29 06:08:58;;;;;;;8.18;4.03;;;18.00;99.90;;;;;;4940169;28;38948;-86
2023/07/29 06:11:24;;;;;;;6.50;4.32;;;18.10;99.90;;;;;;4935098;28;38657;-86
2023/07/29 06:13:51;;;;;;;6.13;3.83;;;18.00;99.90;;;;;;4935102;28;37319;-86
2023/07/29 06:16:17;;;;;;;9.15;4.18;;;18.10;99.90;;;;;;4945620;28;36022;-85
2023/07/29 06:18:43;;;;;;;5.82;3.80;;;18.00;99.90;;;;;;4946318;28;38454;-85
2023/07/29 06:21:12;;;;;;;6.82;3.72;;;18.00;99.90;;;;;;4941665;28;38500;-84
2023/07/29 06:23:38;;;;;;;4.63;3.00;;;18.00;99.90;;;;;;4942314;28;37421;-87
2023/07/29 06:26:05;;;;;;;8.10;4.03;;;18.10;99.90;;;;;;4941306;28;37274;-84
2023/07/29 06:28:31;;;;;;;6.03;3.13;;;18.20;99.90;;;;;;4949735;28;38879;-86
2023/07/29 06:30:58;;;;;;;5.75;3.40;;;18.50;99.90;;;;;;4959337;28;39425;-87
2023/07/29 06:33:24;;;;;;;5.38;3.10;;;18.70;99.90;;;;;;4944159;28;37179;-85
2023/07/29 06:35:50;;;;;;;6.70;2.95;;;18.80;99.90;;;;;;4947699;28;36439;-86
2023/07/29 06:38:21;;;;;;;6.80;3.30;;;18.80;99.90;;;;;;4949736;28;38223;-84
2023/07/29 06:40:48;;;;;;;6.82;3.65;;;18.90;99.90;;;;;;4953661;28;37838;-88
2023/07/29 06:43:14;;;;;;;4.30;2.95;;;18.80;99.90;;;;;;4944165;28;37158;-87
2023/07/29 06:45:40;;;;;;;7.97;3.15;;;18.90;99.90;;;;;;4941382;28;36337;-86
2023/07/29 06:48:07;;;;;;;6.20;3.20;;;18.90;99.90;;;;;;4945470;28;39015;-87
2023/07/29 06:50:33;;;;;;;4.47;2.47;;;18.90;99.90;;;;;;4951260;28;39026;-87
2023/07/29 06:52:59;;;;;;;7.32;3.05;;;19.10;99.90;;;;;;4943827;28;37842;-85
2023/07/29 06:55:25;;;;;;;8.88;3.70;;;19.00;99.90;;;;;;4955358;28;36276;-85
2023/07/29 06:57:51;;;;;;;5.78;2.90;;;19.00;99.90;;;;;;4961787;28;39148;-88
2023/07/29 07:00:18;;;;;;;4.78;3.00;;;18.90;99.90;;;;;;4949693;28;37722;-85
2023/07/29 07:02:44;;;;;;;4.60;2.92;;;18.90;99.90;;;;;;4946972;28;37890;-87
2023/07/29 07:05:10;;;;;;;7.80;3.25;;;19.00;99.90;;;;;;4953371;28;37209;-84
2023/07/29 07:07:37;;;;;;;3.97;2.70;;;19.00;99.90;;;;;;4940735;28;37950;-86
2023/07/29 07:10:04;;;;;;;4.10;2.42;;;19.10;99.90;;;;;;4955573;28;38627;-86
2023/07/29 07:12:30;;;;;;;8.55;3.40;;;19.20;99.90;;;;;;4941598;28;37199;-86
2023/07/29 07:14:56;;;;;;;6.15;2.47;;;19.30;99.90;;;;;;4954276;28;37693;-86
2023/07/29 07:17:22;;;;;;;4.28;2.88;;;19.30;99.90;;;;;;4961559;28;39599;-85
2023/07/29 07:19:49;;;;;;;6.75;3.38;;;19.10;99.90;;;;;;4948397;28;39864;-87
2023/07/29 07:22:16;;;;;;;7.40;3.17;;;19.00;99.90;;;;;;4970373;28;37418;-88
2023/07/29 07:24:42;;;;;;;7.72;3.53;;;18.90;99.90;;;;;;4936753;28;36490;-89
2023/07/29 07:27:08;;;;;;;5.65;2.90;;;18.80;99.90;;;;;;4942468;28;37649;-87
2023/07/29 07:29:34;;;;;;;5.68;3.42;;;18.80;99.90;;;;;;4936461;28;39151;-86
2023/07/29 07:32:00;;;;;;;6.65;3.33;;;18.90;99.90;;;;;;4938853;28;37686;-87
2023/07/29 07:34:26;;;;;;;5.18;3.30;;;18.90;99.90;;;;;;4948783;28;35901;-86
2023/07/29 07:36:53;;;;;;;6.60;3.50;;;19.10;99.90;;;;;;4941969;28;40400;-87
2023/07/29 07:39:19;;;;;;;6.85;3.25;;;19.20;99.90;;;;;;4960351;28;39290;-86
2023/07/29 07:41:45;;;;;;;4.32;2.90;;;19.20;99.90;;;;;;4954630;28;37228;-87
2023/07/29 07:44:15;;;;;;;4.65;3.00;;;19.30;99.90;;;;;;4960387;28;36892;-85
2023/07/29 07:46:41;;;;;;;6.32;3.03;;;19.40;99.90;;;;;;4946694;28;38901;-86
2023/07/29 07:49:08;;;;;;;5.32;3.05;;;19.30;99.90;;;;;;4944473;28;37697;-86
2023/07/29 07:51:34;;;;;;;4.95;3.45;;;19.20;99.90;;;;;;4948531;28;37659;-86
2023/07/29 07:54:00;;;;;;;6.93;4.10;;;19.20;99.90;;;;;;4949031;28;36172;-86
2023/07/29 07:56:26;;;;;;;5.70;2.78;;;19.20;99.90;;;;;;4929829;29;37498;-85
2023/07/29 07:58:52;;;;;;;3.30;2.90;;;19.40;99.90;;;;;;4958474;28;38467;-84
2023/07/29 08:01:18;;;;;;;6.90;2.40;;;19.70;99.90;;;;;;4950317;28;37094;-83
2023/07/29 08:03:44;;;;;;;4.15;2.95;;;20.40;99.90;;;;;;4941374;28;35997;-85
2023/07/29 08:06:11;;;;;;;3.85;2.67;;;20.90;99.90;;;;;;4940019;28;39118;-86
2023/07/29 08:08:37;;;;;;;6.43;3.60;;;20.60;99.90;;;;;;4955308;28;38709;-86
2023/07/29 08:11:03;;;;;;;3.95;2.97;;;20.30;99.90;;;;;;4951784;28;37508;-85
2023/07/29 08:13:29;;;;;;;7.10;3.42;;;19.90;99.90;;;;;;4945297;28;36065;-86
2023/07/29 08:15:55;;;;;;;5.38;3.25;;;20.30;99.90;;;;;;4946575;28;37980;-84
2023/07/29 08:18:22;;;;;;;4.72;3.47;;;20.70;99.90;;;;;;4949385;28;40208;-84
2023/07/29 08:20:53;;;;;;;3.60;3.25;;;20.70;99.90;;;;;;4935696;28;37456;-86
2023/07/29 08:23:19;;;;;;;6.32;2.72;;;20.50;99.90;;;;;;4954694;28;37688;-84
2023/07/29 08:25:45;;;;;;;5.97;3.30;;;20.70;99.90;;;;;;4953444;28;39980;-85
2023/07/29 08:28:11;;;;;;;5.60;2.88;;;20.60;99.90;;;;;;4956244;28;39848;-85
2023/07/29 08:30:37;;;;;;;4.55;2.53;;;20.50;99.90;;;;;;4938101;28;37572;-86
2023/07/29 08:33:03;;;;;;;5.57;2.67;;;20.60;99.90;;;;;;4954934;28;37140;-85
2023/07/29 08:35:29;;;;;;;5.03;2.55;;;20.50;99.90;;;;;;4939524;28;38114;-84
2023/07/29 08:37:55;;;;;;;3.60;2.33;;;20.50;99.90;;;;;;4945520;28;37277;-84
2023/07/29 08:40:29;;;;;;;4.93;2.40;;;20.60;99.90;;;;;;4929484;28;38528;-85
2023/07/29 08:43:07;;;;;;;2.60;2.20;;;20.50;99.90;;;;;;4948511;28;38852;-85
2023/07/29 08:45:39;;;;;;;3.75;2.20;;;20.40;99.90;;;;;;4960415;28;48691;-88
2023/07/29 08:48:09;;;;;;;3.88;2.42;;;20.40;99.90;;;;;;4962537;28;39321;-84
2023/07/29 08:50:36;;;;;;;5.10;2.42;;;20.30;99.90;;;;;;4951124;28;38682;-87
2023/07/29 08:53:06;;;;;;;5.47;3.25;;;20.40;99.90;;;;;;4947479;28;37216;-84
2023/07/29 08:55:33;;;;;;;3.28;2.78;;;20.10;99.90;;;;;;4954848;28;38348;-86
2023/07/29 08:58:00;;;;;;;3.70;2.47;;;20.10;99.90;;;;;;4955887;28;37890;-85
2023/07/29 09:00:32;;;;;;;4.30;2.78;;;20.10;99.90;;;;;;4943261;28;39636;-84
2023/07/29 09:03:02;;;;;;;4.20;2.67;;;20.10;99.90;;;;;;4962111;28;37637;-85
2023/07/29 09:05:28;;;;;;;2.38;2.17;;;20.10;99.90;;;;;;4950541;28;47519;-87
2023/07/29 09:07:55;;;;;;;3.17;2.30;;;20.10;99.90;;;;;;4945802;28;38701;-86
2023/07/29 09:10:24;;;;;;;3.58;2.03;;;20.10;99.90;;;;;;4960717;28;37162;-85
2023/07/29 09:12:50;;;;;;;2.45;1.70;;;20.20;99.90;;;;;;4944872;28;36449;-86
2023/07/29 09:15:34;;;;;;;2.95;1.80;;;20.40;99.90;;;;;;4954881;28;38515;-86
2023/07/29 09:18:10;;;;;;;3.33;1.80;;;20.70;99.90;;;;;;4958698;28;38399;-85
2023/07/29 09:20:36;;;;;;;3.58;1.52;;;20.70;99.90;;;;;;4937430;28;46835;-85
2023/07/29 09:23:03;;;;;;;2.95;1.63;;;20.50;99.90;;;;;;4952036;28;36273;-86
2023/07/29 09:25:29;;;;;;;4.03;1.90;;;20.30;99.90;;;;;;4946812;28;37702;-91
2023/07/29 09:28:07;;;;;;;5.63;1.27;;;20.00;99.90;;;;;;4944396;28;39199;-93
2023/07/29 09:30:35;;;;;;;3.45;1.00;;;19.40;99.90;;;;;;4969710;28;47218;-90
2023/07/29 09:33:03;;;;;;;2.67;0.98;;;19.10;99.90;;;;;;4954325;28;38911;-87
2023/07/29 09:35:33;;;;;;;0.80;0.70;;;18.90;99.90;;;;;;4955650;28;39678;-89
2023/07/29 09:37:59;;;;;;;2.75;0.93;;;18.90;99.90;;;;;;4946149;28;37855;-89
2023/07/29 09:40:25;;;;;;;1.98;0.88;;;18.90;99.90;;;;;;4938892;28;37554;-89
2023/07/29 09:42:54;;;;;;;3.78;0.70;;;19.00;99.90;;;;;;4943845;28;36115;-90
2023/07/29 09:45:22;;;;;;;1.65;0.70;;;19.00;99.90;;;;;;4948051;28;37511;-88
2023/07/29 09:47:49;;;;;;;2.28;0.63;;;19.10;99.90;;;;;;4955664;28;37421;-89
2023/07/29 09:50:16;;;;;;;2.08;0.90;;;19.10;99.90;;;;;;4945441;28;37688;-89
2023/07/29 09:52:43;;;;;;;2.20;0.80;;;19.10;99.90;;;;;;4939171;28;37300;-89
2023/07/29 09:55:13;;;;;;;3.13;0.75;;;19.10;99.90;;;;;;4944619;28;39036;-90
2023/07/29 09:57:43;;;;;;;3.55;1.27;;;19.10;99.90;;;;;;4950353;28;38083;-91
2023/07/29 10:00:13;;;;;;;3.33;1.10;;;18.90;99.90;;;;;;4948121;28;37433;-89
2023/07/29 10:02:41;;;;;;;2.17;1.17;;;18.80;99.90;;;;;;4947796;28;35747;-91
2023/07/29 10:05:14;;;;;;;2.25;1.17;;;18.70;99.90;;;;;;4954938;28;37727;-89
2023/07/29 10:07:40;;;;;;;2.58;1.25;;;18.60;99.90;;;;;;4939135;28;38196;-90
2023/07/29 10:10:08;;;;;;;3.25;1.30;;;18.60;99.90;;;;;;4938775;28;37453;-89
2023/07/29 10:12:35;;;;;;;2.97;1.67;;;18.60;99.90;;;;;;4925866;28;38700;-86
2023/07/29 10:15:06;;;;;;;6.53;1.80;;;18.60;99.90;;;;;;4940372;28;38008;-88
2023/07/29 10:17:38;;;;;;;6.47;1.98;;;18.60;99.90;;;;;;4929068;28;47085;-92
2023/07/29 10:20:08;;;;;;;3.13;1.73;;;18.50;99.90;;;;;;4940645;28;36955;-87
2023/07/29 10:22:40;;;;;;;5.53;2.35;;;18.50;99.90;;;;;;4940214;28;36202;-91
2023/07/29 10:25:15;;;;;;;6.57;2.80;;;18.40;99.90;;;;;;4954299;28;37928;-86
2023/07/29 10:28:04;;;;;;;4.57;2.55;;;18.30;99.90;;;;;;4948581;28;38131;-86
2023/07/29 10:30:31;;;;;;;4.50;3.00;;;18.20;99.90;;;;;;4931885;28;47186;-86
2023/07/29 10:33:01;;;;;;;5.35;3.15;;;18.20;99.90;;;;;;4941663;28;37116;-87
2023/07/29 10:35:32;;;;;;;4.47;2.70;;;18.20;99.90;;;;;;4938260;28;38681;-85
2023/07/29 10:38:02;;;;;;;5.53;2.88;;;18.20;99.90;;;;;;4956002;28;37692;-87
2023/07/29 10:40:53;;;;;;;5.18;3.30;;;18.20;99.90;;;;;;4958971;28;46894;-88
2023/07/29 10:43:33;;;;;;;5.75;3.45;;;18.20;99.90;;;;;;4939450;28;36436;-88
2023/07/29 10:46:18;;;;;;;3.50;3.00;;;18.30;99.90;;;;;;4947511;28;39920;-88
2023/07/29 10:48:56;;;;;;;6.07;3.13;;;18.30;99.90;;;;;;4960152;28;49375;-88
2023/07/29 10:51:40;;;;;;;4.45;2.75;;;18.30;99.90;;;;;;4953091;28;37909;-86
2023/07/29 10:54:11;;;;;;;4.40;2.92;;;18.20;99.90;;;;;;4945234;28;37817;-88
2023/07/29 10:56:43;;;;;;;3.72;2.95;;;18.20;99.90;;;;;;4956542;28;39749;-89
2023/07/29 10:59:12;;;;;;;4.07;2.67;;;18.70;99.90;;;;;;4943673;28;36762;-88
2023/07/29 11:01:43;;;;;;;5.32;2.72;;;19.30;99.90;;;;;;4959478;28;38866;-88
2023/07/29 11:04:24;;;;;;;3.35;2.47;;;19.40;99.90;;;;;;4940467;28;36470;-88
2023/07/29 11:09:59;;;;;;;3.23;1.87;;;20.00;99.90;;;;;;4957985;28;49680;-88
2023/07/29 11:12:48;;;;;;;2.50;1.80;;;20.40;99.90;;;;;;4942232;28;37377;-86
2023/07/29 11:15:19;;;;;;;2.80;2.05;;;20.40;99.90;;;;;;4958275;28;37455;-87
2023/07/29 11:18:06;;;;;;;3.38;2.25;;;20.30;99.90;;;;;;4942264;28;37969;-86
2023/07/29 11:20:33;;;;;;;2.83;2.42;;;20.10;99.90;;;;;;4929518;28;48616;-86
2023/07/29 11:23:03;;;;;;;3.65;2.60;;;19.90;99.90;;;;;;4946336;28;38680;-86
2023/07/29 11:25:31;;;;;;;3.15;2.70;;;19.80;99.90;;;;;;4933604;28;47165;-85
2023/07/29 11:27:59;;;;;;;3.53;3.20;;;19.70;99.90;;;;;;4947854;28;37642;-85
2023/07/29 11:30:29;;;;;;;3.22;2.90;;;19.70;99.90;;;;;;4923593;28;37417;-86
2023/07/29 11:32:55;;;;;;;5.95;3.03;;;19.60;99.90;;;;;;4935024;28;37561;-86
2023/07/29 11:35:22;;;;;;;5.25;3.20;;;19.70;99.90;;;;;;4942623;28;35951;-86
2023/07/29 11:37:49;;;;;;;4.63;3.88;;;19.60;99.90;;;;;;4951327;28;37885;-86
2023/07/29 11:40:17;;;;;;;4.75;3.55;;;19.70;99.90;;;;;;4944567;28;37722;-85
2023/07/29 11:42:45;;;;;;;4.05;3.22;;;19.80;99.90;;;;;;4946055;28;37527;-86
2023/07/29 11:45:13;;;;;;;6.50;3.80;;;19.60;99.90;;;;;;4951137;28;36706;-86
2023/07/29 11:47:39;;;;;;;5.35;3.50;;;19.70;99.90;;;;;;4945808;28;37821;-86
2023/07/29 11:50:13;;;;;;;3.95;3.55;;;19.70;99.90;;;;;;4941531;28;40094;-85
2023/07/29 11:52:42;;;;;;;5.22;3.53;;;19.70;99.90;;;;;;4948722;28;47852;-88
2023/07/29 11:55:09;;;;;;;4.07;2.90;;;19.90;99.90;;;;;;4948444;28;36991;-86
2023/07/29 11:57:39;;;;;;;3.10;2.80;;;20.00;99.90;;;;;;4957406;28;38370;-86
2023/07/29 12:00:09;;;;;;;8.73;3.08;;;20.10;99.90;;;;;;4956468;28;39859;-86
2023/07/29 12:02:38;;;;;;;2.38;2.17;;;20.10;99.90;;;;;;4930586;28;38118;-87
2023/07/29 12:05:06;;;;;;;3.13;2.35;;;20.50;99.90;;;;;;4936478;28;20048;-86
2023/07/29 12:07:33;;;;;;;2.97;2.17;;;21.00;99.90;;;;;;4946341;28;39156;-86
2023/07/29 12:09:59;;;;;;;6.15;2.50;;;21.10;99.90;;;;;;4942794;28;37884;-86
2023/07/29 12:12:26;;;;;;;4.28;2.88;;;21.10;99.90;;;;;;4940916;28;37495;-85
2023/07/29 12:14:55;;;;;;;3.40;3.10;;;20.70;99.90;;;;;;4939983;28;36588;-86
2023/07/29 12:17:21;;;;;;;3.70;2.80;;;20.60;99.90;;;;;;4936401;28;37657;-85
2023/07/29 12:19:47;;;;;;;5.45;2.35;;;20.50;99.90;;;;;;4943709;28;37808;-85
2023/07/29 12:22:18;;;;;;;4.63;2.45;;;20.80;99.90;;;;;;4948082;28;39106;-84
2023/07/29 12:24:45;;;;;;;2.72;2.28;;;21.20;99.90;;;;;;4950788;28;37630;-85
2023/07/29 12:27:12;;;;;;;3.45;1.80;;;21.20;99.90;;;;;;4949721;28;37380;-85
2023/07/29 12:29:43;;;;;;;3.38;2.60;;;21.10;99.90;;;;;;4937050;28;38993;-86
2023/07/29 12:32:10;;;;;;;5.15;2.20;;;20.70;99.90;;;;;;4939186;28;37250;-84
2023/07/29 12:34:39;;;;;;;5.15;1.98;;;20.30;99.90;;;;;;4957649;28;37894;-86
2023/07/29 12:37:06;;;;;;;3.15;1.85;;;20.60;99.90;;;;;;4960103;28;39948;-84
2023/07/29 12:39:33;;;;;;;8.68;2.15;;;21.10;99.90;;;;;;4959518;28;38841;-85
2023/07/29 12:42:01;;;;;;;5.75;1.83;;;21.70;99.90;;;;;;4951879;28;37409;-84
2023/07/29 12:44:32;;;;;;;3.58;1.70;;;22.00;99.90;;;;;;4946492;28;36796;-84
2023/07/29 12:47:00;;;;;;;2.83;1.20;;;22.10;99.90;;;;;;4953955;28;37969;-84
2023/07/29 12:49:28;;;;;;;2.78;1.42;;;22.20;99.90;;;;;;4946535;28;38844;-84
2023/07/29 12:51:54;;;;;;;5.13;1.70;;;22.30;99.90;;;;;;4958994;28;37159;-84
2023/07/29 12:54:20;;;;;;;4.90;2.10;;;22.20;99.90;;;;;;4948307;28;35897;-83
2023/07/29 12:56:46;;;;;;;4.88;1.98;;;22.40;99.90;;;;;;4958212;28;37522;-85